sensor_id;sensor_type;location;lat;lon;timestamp;P1;durP1;ratioP1;P2;durP2;ratioP2
75542;SDS011;64129;53.508;10.476;2023-04-03T00:00:33;2.67;;;1.77;;
75542;SDS011;64129;53.508;10.476;2023-04-03T00:02:59;4.82;;;1.58;;
75542;SDS011;64129;53.508;10.476;2023-04-03T00:05:26;4.85;;;1.30;;
75542;SDS011;64129;53.508;10.476;2023-04-03T00:07:53;2.65;;;1.40;;
75542;SDS011;64129;53.508;10.476;2023-04-03T00:10:19;3.05;;;2.33;;
75542;SDS011;64129;53.508;10.476;2023-04-03T00:12:46;4.70;;;1.80;;
75542;SDS011;64129;53.508;10.476;2023-04-03T00:15:12;4.38;;;2.33;;
75542;SDS011;64129;53.508;10.476;2023-04-03T00:17:39;2.63;;;1.48;;
75542;SDS011;64129;53.508;10.476;2023-04-03T00:20:05;4.93;;;1.60;;
75542;SDS011;64129;53.508;10.476;2023-04-03T00:22:32;5.65;;;1.60;;
75542;SDS011;64129;53.508;10.476;2023-04-03T00:24:59;4.03;;;2.03;;
75542;SDS011;64129;53.508;10.476;2023-04-03T00:27:26;4.85;;;2.22;;
75542;SDS011;64129;53.508;10.476;2023-04-03T00:29:52;5.25;;;2.70;;
75542;SDS011;64129;53.508;10.476;2023-04-03T00:32:19;3.33;;;2.83;;
75542;SDS011;64129;53.508;10.476;2023-04-03T00:34:45;4.78;;;3.22;;
75542;SDS011;64129;53.508;10.476;2023-04-03T00:37:12;3.88;;;2.83;;
75542;SDS011;64129;53.508;10.476;2023-04-03T00:39:39;5.72;;;2.45;;
75542;SDS011;64129;53.508;10.476;2023-04-03T00:42:05;4.75;;;2.70;;
75542;SDS011;64129;53.508;10.476;2023-04-03T00:46:59;2.97;;;2.10;;
75542;SDS011;64129;53.508;10.476;2023-04-03T00:49:27;5.70;;;2.25;;
75542;SDS011;64129;53.508;10.476;2023-04-03T00:51:54;5.30;;;1.80;;
75542;SDS011;64129;53.508;10.476;2023-04-03T00:54:22;3.47;;;1.92;;
75542;SDS011;64129;53.508;10.476;2023-04-03T00:56:51;2.50;;;1.80;;
75542;SDS011;64129;53.508;10.476;2023-04-03T00:59:21;8.25;;;2.00;;
75542;SDS011;64129;53.508;10.476;2023-04-03T01:01:55;4.47;;;1.48;;
75542;SDS011;64129;53.508;10.476;2023-04-03T01:04:30;5.63;;;1.83;;
75542;SDS011;64129;53.508;10.476;2023-04-03T01:07:09;3.42;;;1.63;;
75542;SDS011;64129;53.508;10.476;2023-04-03T01:09:38;5.75;;;1.80;;
75542;SDS011;64129;53.508;10.476;2023-04-03T01:12:40;3.10;;;1.50;;
75542;SDS011;64129;53.508;10.476;2023-04-03T01:15:03;4.30;;;1.58;;
75542;SDS011;64129;53.508;10.476;2023-04-03T01:17:36;3.40;;;1.60;;
75542;SDS011;64129;53.508;10.476;2023-04-03T01:25:38;1.60;;;1.50;;
75542;SDS011;64129;53.508;10.476;2023-04-03T01:28:09;5.63;;;1.58;;
75542;SDS011;64129;53.508;10.476;2023-04-03T01:33:23;6.18;;;1.70;;
75542;SDS011;64129;53.508;10.476;2023-04-03T01:35:49;2.60;;;1.60;;
75542;SDS011;64129;53.508;10.476;2023-04-03T01:38:17;5.57;;;2.28;;
75542;SDS011;64129;53.508;10.476;2023-04-03T01:40:44;4.50;;;1.58;;
75542;SDS011;64129;53.508;10.476;2023-04-03T01:43:11;5.85;;;1.50;;
75542;SDS011;64129;53.508;10.476;2023-04-03T01:45:38;5.78;;;2.05;;
75542;SDS011;64129;53.508;10.476;2023-04-03T01:48:04;2.35;;;1.73;;
75542;SDS011;64129;53.508;10.476;2023-04-03T01:50:31;3.15;;;1.83;;
75542;SDS011;64129;53.508;10.476;2023-04-03T01:52:57;4.25;;;1.50;;
75542;SDS011;64129;53.508;10.476;2023-04-03T01:55:24;3.55;;;2.10;;
75542;SDS011;64129;53.508;10.476;2023-04-03T01:57:50;6.70;;;1.88;;
75542;SDS011;64129;53.508;10.476;2023-04-03T02:00:17;5.35;;;1.77;;
75542;SDS011;64129;53.508;10.476;2023-04-03T02:02:44;5.03;;;1.65;;
75542;SDS011;64129;53.508;10.476;2023-04-03T02:05:10;3.33;;;1.20;;
75542;SDS011;64129;53.508;10.476;2023-04-03T02:07:37;5.85;;;2.20;;
75542;SDS011;64129;53.508;10.476;2023-04-03T02:10:04;4.65;;;1.52;;
75542;SDS011;64129;53.508;10.476;2023-04-03T02:12:31;4.97;;;1.77;;
75542;SDS011;64129;53.508;10.476;2023-04-03T02:14:57;2.08;;;1.35;;
75542;SDS011;64129;53.508;10.476;2023-04-03T02:17:25;5.63;;;1.45;;
75542;SDS011;64129;53.508;10.476;2023-04-03T02:19:53;5.53;;;1.75;;
75542;SDS011;64129;53.508;10.476;2023-04-03T02:22:20;2.83;;;1.58;;
75542;SDS011;64129;53.508;10.476;2023-04-03T02:24:47;4.82;;;1.55;;
75542;SDS011;64129;53.508;10.476;2023-04-03T02:27:13;4.05;;;1.73;;
75542;SDS011;64129;53.508;10.476;2023-04-03T02:29:40;3.35;;;1.35;;
75542;SDS011;64129;53.508;10.476;2023-04-03T02:32:07;6.18;;;1.52;;
75542;SDS011;64129;53.508;10.476;2023-04-03T02:34:34;2.63;;;1.80;;
75542;SDS011;64129;53.508;10.476;2023-04-03T02:37:01;4.18;;;1.25;;
75542;SDS011;64129;53.508;10.476;2023-04-03T02:39:28;5.32;;;1.60;;
75542;SDS011;64129;53.508;10.476;2023-04-03T02:41:56;4.13;;;1.60;;
75542;SDS011;64129;53.508;10.476;2023-04-03T02:44:24;4.53;;;1.42;;
75542;SDS011;64129;53.508;10.476;2023-04-03T02:46:51;4.00;;;1.42;;
75542;SDS011;64129;53.508;10.476;2023-04-03T02:49:18;2.38;;;1.00;;
75542;SDS011;64129;53.508;10.476;2023-04-03T02:51:44;5.22;;;1.45;;
75542;SDS011;64129;53.508;10.476;2023-04-03T02:54:12;1.88;;;1.27;;
75542;SDS011;64129;53.508;10.476;2023-04-03T02:56:42;2.17;;;1.58;;
75542;SDS011;64129;53.508;10.476;2023-04-03T02:59:09;5.25;;;1.73;;
75542;SDS011;64129;53.508;10.476;2023-04-03T03:01:37;4.25;;;1.67;;
75542;SDS011;64129;53.508;10.476;2023-04-03T03:04:04;3.33;;;1.77;;
75542;SDS011;64129;53.508;10.476;2023-04-03T03:06:30;3.85;;;1.30;;
75542;SDS011;64129;53.508;10.476;2023-04-03T03:08:57;4.43;;;1.42;;
75542;SDS011;64129;53.508;10.476;2023-04-03T03:11:24;2.95;;;1.38;;
75542;SDS011;64129;53.508;10.476;2023-04-03T03:13:51;2.65;;;1.50;;
75542;SDS011;64129;53.508;10.476;2023-04-03T03:16:18;3.78;;;1.30;;
75542;SDS011;64129;53.508;10.476;2023-04-03T03:18:45;3.92;;;1.55;;
75542;SDS011;64129;53.508;10.476;2023-04-03T03:21:11;2.42;;;1.63;;
75542;SDS011;64129;53.508;10.476;2023-04-03T03:23:38;3.78;;;1.70;;
75542;SDS011;64129;53.508;10.476;2023-04-03T03:26:06;2.88;;;1.10;;
75542;SDS011;64129;53.508;10.476;2023-04-03T03:28:35;4.07;;;1.40;;
75542;SDS011;64129;53.508;10.476;2023-04-03T03:31:03;2.80;;;1.63;;
75542;SDS011;64129;53.508;10.476;2023-04-03T03:33:31;3.67;;;1.40;;
75542;SDS011;64129;53.508;10.476;2023-04-03T03:35:58;3.90;;;1.52;;
75542;SDS011;64129;53.508;10.476;2023-04-03T03:38:25;4.53;;;1.58;;
75542;SDS011;64129;53.508;10.476;2023-04-03T03:40:53;3.75;;;1.40;;
75542;SDS011;64129;53.508;10.476;2023-04-03T03:43:21;3.10;;;1.60;;
75542;SDS011;64129;53.508;10.476;2023-04-03T03:45:50;3.35;;;1.60;;
75542;SDS011;64129;53.508;10.476;2023-04-03T03:48:18;2.97;;;1.42;;
75542;SDS011;64129;53.508;10.476;2023-04-03T03:50:46;2.80;;;1.38;;
75542;SDS011;64129;53.508;10.476;2023-04-03T03:53:16;4.50;;;1.33;;
75542;SDS011;64129;53.508;10.476;2023-04-03T03:55:42;2.30;;;1.33;;
75542;SDS011;64129;53.508;10.476;2023-04-03T03:58:09;2.35;;;1.15;;
75542;SDS011;64129;53.508;10.476;2023-04-03T04:00:36;2.90;;;1.40;;
75542;SDS011;64129;53.508;10.476;2023-04-03T04:03:02;2.53;;;1.58;;
75542;SDS011;64129;53.508;10.476;2023-04-03T04:05:30;2.80;;;1.40;;
75542;SDS011;64129;53.508;10.476;2023-04-03T04:07:59;4.30;;;1.25;;
75542;SDS011;64129;53.508;10.476;2023-04-03T04:10:26;5.72;;;1.45;;
75542;SDS011;64129;53.508;10.476;2023-04-03T04:12:53;7.22;;;2.25;;
75542;SDS011;64129;53.508;10.476;2023-04-03T04:15:22;6.68;;;1.60;;
75542;SDS011;64129;53.508;10.476;2023-04-03T04:17:49;5.43;;;1.58;;
75542;SDS011;64129;53.508;10.476;2023-04-03T04:20:16;5.63;;;1.35;;
75542;SDS011;64129;53.508;10.476;2023-04-03T04:22:42;5.15;;;1.55;;
75542;SDS011;64129;53.508;10.476;2023-04-03T04:25:10;2.33;;;1.40;;
75542;SDS011;64129;53.508;10.476;2023-04-03T04:27:38;6.18;;;1.70;;
75542;SDS011;64129;53.508;10.476;2023-04-03T04:30:05;5.70;;;1.95;;
75542;SDS011;64129;53.508;10.476;2023-04-03T04:32:32;8.35;;;1.73;;
75542;SDS011;64129;53.508;10.476;2023-04-03T04:34:59;4.82;;;1.90;;
75542;SDS011;64129;53.508;10.476;2023-04-03T04:37:28;2.00;;;1.50;;
75542;SDS011;64129;53.508;10.476;2023-04-03T04:39:55;4.55;;;1.52;;
75542;SDS011;64129;53.508;10.476;2023-04-03T04:42:22;4.22;;;1.65;;
75542;SDS011;64129;53.508;10.476;2023-04-03T04:44:49;5.60;;;2.30;;
75542;SDS011;64129;53.508;10.476;2023-04-03T04:47:15;3.75;;;1.48;;
75542;SDS011;64129;53.508;10.476;2023-04-03T04:49:43;5.15;;;1.95;;
75542;SDS011;64129;53.508;10.476;2023-04-03T04:52:10;4.38;;;1.40;;
75542;SDS011;64129;53.508;10.476;2023-04-03T04:54:38;3.47;;;1.77;;
75542;SDS011;64129;53.508;10.476;2023-04-03T04:57:05;3.28;;;1.45;;
75542;SDS011;64129;53.508;10.476;2023-04-03T04:59:32;4.50;;;1.58;;
75542;SDS011;64129;53.508;10.476;2023-04-03T05:01:59;4.10;;;1.85;;
75542;SDS011;64129;53.508;10.476;2023-04-03T05:04:26;3.78;;;1.85;;
75542;SDS011;64129;53.508;10.476;2023-04-03T05:06:58;4.50;;;2.15;;
75542;SDS011;64129;53.508;10.476;2023-04-03T05:09:28;2.55;;;1.60;;
75542;SDS011;64129;53.508;10.476;2023-04-03T05:11:54;5.95;;;1.80;;
75542;SDS011;64129;53.508;10.476;2023-04-03T05:14:25;3.25;;;1.70;;
75542;SDS011;64129;53.508;10.476;2023-04-03T05:16:53;3.53;;;1.45;;
75542;SDS011;64129;53.508;10.476;2023-04-03T05:19:22;5.53;;;1.50;;
75542;SDS011;64129;53.508;10.476;2023-04-03T05:21:50;4.05;;;1.50;;
75542;SDS011;64129;53.508;10.476;2023-04-03T05:24:17;5.05;;;1.83;;
75542;SDS011;64129;53.508;10.476;2023-04-03T05:26:43;3.65;;;1.70;;
75542;SDS011;64129;53.508;10.476;2023-04-03T05:29:11;2.97;;;1.50;;
75542;SDS011;64129;53.508;10.476;2023-04-03T05:31:39;5.57;;;2.83;;
75542;SDS011;64129;53.508;10.476;2023-04-03T05:34:07;3.08;;;1.50;;
75542;SDS011;64129;53.508;10.476;2023-04-03T05:36:35;5.65;;;2.40;;
75542;SDS011;64129;53.508;10.476;2023-04-03T05:39:05;4.07;;;1.55;;
75542;SDS011;64129;53.508;10.476;2023-04-03T05:41:34;3.30;;;1.20;;
75542;SDS011;64129;53.508;10.476;2023-04-03T05:44:01;3.63;;;1.60;;
75542;SDS011;64129;53.508;10.476;2023-04-03T05:46:28;4.63;;;1.85;;
75542;SDS011;64129;53.508;10.476;2023-04-03T05:48:56;4.18;;;1.45;;
75542;SDS011;64129;53.508;10.476;2023-04-03T05:51:33;3.05;;;1.85;;
75542;SDS011;64129;53.508;10.476;2023-04-03T05:54:12;2.53;;;1.40;;
75542;SDS011;64129;53.508;10.476;2023-04-03T05:56:44;3.63;;;1.75;;
75542;SDS011;64129;53.508;10.476;2023-04-03T05:59:11;2.63;;;1.58;;
75542;SDS011;64129;53.508;10.476;2023-04-03T06:01:38;3.60;;;1.42;;
75542;SDS011;64129;53.508;10.476;2023-04-03T06:04:05;3.80;;;1.85;;
75542;SDS011;64129;53.508;10.476;2023-04-03T06:09:11;4.90;;;2.15;;
75542;SDS011;64129;53.508;10.476;2023-04-03T06:11:38;4.18;;;1.42;;
75542;SDS011;64129;53.508;10.476;2023-04-03T06:14:05;2.55;;;1.98;;
75542;SDS011;64129;53.508;10.476;2023-04-03T06:16:32;4.95;;;1.70;;
75542;SDS011;64129;53.508;10.476;2023-04-03T06:18:58;3.67;;;1.73;;
75542;SDS011;64129;53.508;10.476;2023-04-03T06:21:25;4.05;;;2.47;;
75542;SDS011;64129;53.508;10.476;2023-04-03T06:23:52;7.18;;;2.03;;
75542;SDS011;64129;53.508;10.476;2023-04-03T06:26:19;5.20;;;2.15;;
75542;SDS011;64129;53.508;10.476;2023-04-03T06:28:46;3.40;;;1.60;;
75542;SDS011;64129;53.508;10.476;2023-04-03T06:31:13;5.28;;;2.28;;
75542;SDS011;64129;53.508;10.476;2023-04-03T06:33:40;5.82;;;1.80;;
75542;SDS011;64129;53.508;10.476;2023-04-03T06:36:07;2.92;;;1.20;;
75542;SDS011;64129;53.508;10.476;2023-04-03T06:38:33;3.58;;;1.73;;
75542;SDS011;64129;53.508;10.476;2023-04-03T06:41:01;2.85;;;1.67;;
75542;SDS011;64129;53.508;10.476;2023-04-03T06:43:27;4.07;;;1.73;;
75542;SDS011;64129;53.508;10.476;2023-04-03T06:45:54;4.10;;;1.80;;
75542;SDS011;64129;53.508;10.476;2023-04-03T06:48:20;4.07;;;1.70;;
75542;SDS011;64129;53.508;10.476;2023-04-03T06:50:47;3.65;;;1.73;;
75542;SDS011;64129;53.508;10.476;2023-04-03T06:53:14;4.28;;;1.60;;
75542;SDS011;64129;53.508;10.476;2023-04-03T06:55:40;1.67;;;1.15;;
75542;SDS011;64129;53.508;10.476;2023-04-03T06:58:07;4.35;;;1.70;;
75542;SDS011;64129;53.508;10.476;2023-04-03T07:00:34;7.53;;;1.80;;
75542;SDS011;64129;53.508;10.476;2023-04-03T07:03:00;3.38;;;1.25;;
75542;SDS011;64129;53.508;10.476;2023-04-03T07:05:27;4.85;;;1.60;;
75542;SDS011;64129;53.508;10.476;2023-04-03T07:07:53;3.78;;;1.60;;
75542;SDS011;64129;53.508;10.476;2023-04-03T07:10:20;2.55;;;1.10;;
75542;SDS011;64129;53.508;10.476;2023-04-03T07:12:46;4.72;;;1.50;;
75542;SDS011;64129;53.508;10.476;2023-04-03T07:15:13;2.90;;;1.10;;
75542;SDS011;64129;53.508;10.476;2023-04-03T07:17:40;2.75;;;1.17;;
75542;SDS011;64129;53.508;10.476;2023-04-03T07:20:07;3.47;;;1.55;;
75542;SDS011;64129;53.508;10.476;2023-04-03T07:22:34;1.48;;;0.98;;
75542;SDS011;64129;53.508;10.476;2023-04-03T07:25:01;5.65;;;1.42;;
75542;SDS011;64129;53.508;10.476;2023-04-03T07:27:28;2.08;;;1.00;;
75542;SDS011;64129;53.508;10.476;2023-04-03T07:29:55;3.08;;;1.08;;
75542;SDS011;64129;53.508;10.476;2023-04-03T07:32:22;3.55;;;0.88;;
75542;SDS011;64129;53.508;10.476;2023-04-03T07:34:48;5.63;;;0.95;;
75542;SDS011;64129;53.508;10.476;2023-04-03T07:37:15;1.60;;;0.80;;
75542;SDS011;64129;53.508;10.476;2023-04-03T07:39:43;2.80;;;0.90;;
75542;SDS011;64129;53.508;10.476;2023-04-03T07:42:11;0.88;;;0.60;;
75542;SDS011;64129;53.508;10.476;2023-04-03T07:44:38;2.42;;;1.15;;
75542;SDS011;64129;53.508;10.476;2023-04-03T07:47:05;2.95;;;1.10;;
75542;SDS011;64129;53.508;10.476;2023-04-03T07:49:31;3.30;;;1.38;;
75542;SDS011;64129;53.508;10.476;2023-04-03T07:51:59;3.13;;;1.02;;
75542;SDS011;64129;53.508;10.476;2023-04-03T07:54:25;3.70;;;1.10;;
75542;SDS011;64129;53.508;10.476;2023-04-03T07:56:52;1.85;;;1.00;;
75542;SDS011;64129;53.508;10.476;2023-04-03T07:59:19;6.05;;;1.25;;
75542;SDS011;64129;53.508;10.476;2023-04-03T08:01:45;2.03;;;1.50;;
75542;SDS011;64129;53.508;10.476;2023-04-03T08:04:12;3.72;;;1.08;;
75542;SDS011;64129;53.508;10.476;2023-04-03T08:06:38;3.92;;;1.00;;
75542;SDS011;64129;53.508;10.476;2023-04-03T08:09:10;2.92;;;0.95;;
75542;SDS011;64129;53.508;10.476;2023-04-03T08:11:38;2.15;;;0.82;;
75542;SDS011;64129;53.508;10.476;2023-04-03T08:14:05;2.88;;;0.90;;
75542;SDS011;64129;53.508;10.476;2023-04-03T08:16:32;2.25;;;0.95;;
75542;SDS011;64129;53.508;10.476;2023-04-03T08:18:59;3.33;;;1.02;;
75542;SDS011;64129;53.508;10.476;2023-04-03T08:21:25;2.05;;;0.90;;
75542;SDS011;64129;53.508;10.476;2023-04-03T08:23:52;1.83;;;0.70;;
75542;SDS011;64129;53.508;10.476;2023-04-03T08:26:19;0.93;;;0.50;;
75542;SDS011;64129;53.508;10.476;2023-04-03T08:28:48;1.65;;;0.55;;
75542;SDS011;64129;53.508;10.476;2023-04-03T08:31:16;0.90;;;0.50;;
75542;SDS011;64129;53.508;10.476;2023-04-03T08:33:45;2.35;;;0.50;;
75542;SDS011;64129;53.508;10.476;2023-04-03T08:36:16;1.50;;;0.55;;
75542;SDS011;64129;53.508;10.476;2023-04-03T08:39:01;1.77;;;0.60;;
75542;SDS011;64129;53.508;10.476;2023-04-03T08:41:33;1.88;;;0.70;;
75542;SDS011;64129;53.508;10.476;2023-04-03T08:44:09;1.65;;;0.60;;
75542;SDS011;64129;53.508;10.476;2023-04-03T08:52:34;4.53;;;0.75;;
75542;SDS011;64129;53.508;10.476;2023-04-03T08:55:05;5.32;;;0.77;;
75542;SDS011;64129;53.508;10.476;2023-04-03T08:57:41;2.60;;;0.68;;
75542;SDS011;64129;53.508;10.476;2023-04-03T09:02:41;1.75;;;0.75;;
75542;SDS011;64129;53.508;10.476;2023-04-03T09:05:28;4.20;;;0.82;;
75542;SDS011;64129;53.508;10.476;2023-04-03T09:08:01;1.73;;;0.73;;
75542;SDS011;64129;53.508;10.476;2023-04-03T09:10:33;2.72;;;0.80;;
75542;SDS011;64129;53.508;10.476;2023-04-03T09:13:08;1.48;;;0.70;;
75542;SDS011;64129;53.508;10.476;2023-04-03T09:15:58;2.38;;;0.50;;
75542;SDS011;64129;53.508;10.476;2023-04-03T09:18:30;1.05;;;0.60;;
75542;SDS011;64129;53.508;10.476;2023-04-03T09:21:04;1.65;;;0.70;;
75542;SDS011;64129;53.508;10.476;2023-04-03T09:23:43;1.42;;;0.50;;
75542;SDS011;64129;53.508;10.476;2023-04-03T09:26:23;0.93;;;0.60;;
75542;SDS011;64129;53.508;10.476;2023-04-03T09:28:53;0.90;;;0.65;;
75542;SDS011;64129;53.508;10.476;2023-04-03T09:31:23;1.55;;;0.68;;
75542;SDS011;64129;53.508;10.476;2023-04-03T09:33:56;1.38;;;0.70;;
75542;SDS011;64129;53.508;10.476;2023-04-03T09:36:44;2.13;;;0.80;;
75542;SDS011;64129;53.508;10.476;2023-04-03T09:39:14;3.22;;;0.63;;
75542;SDS011;64129;53.508;10.476;2023-04-03T09:42:02;2.33;;;0.82;;
75542;SDS011;64129;53.508;10.476;2023-04-03T09:44:32;1.70;;;0.60;;
75542;SDS011;64129;53.508;10.476;2023-04-03T09:47:22;2.13;;;0.77;;
75542;SDS011;64129;53.508;10.476;2023-04-03T09:49:51;0.82;;;0.80;;
75542;SDS011;64129;53.508;10.476;2023-04-03T09:52:44;2.90;;;1.02;;
75542;SDS011;64129;53.508;10.476;2023-04-03T09:57:53;3.72;;;0.85;;
75542;SDS011;64129;53.508;10.476;2023-04-03T10:00:23;0.93;;;0.40;;
75542;SDS011;64129;53.508;10.476;2023-04-03T10:02:54;0.90;;;0.63;;
75542;SDS011;64129;53.508;10.476;2023-04-03T10:10:40;1.70;;;0.70;;
75542;SDS011;64129;53.508;10.476;2023-04-03T10:13:18;4.07;;;1.23;;
75542;SDS011;64129;53.508;10.476;2023-04-03T10:15:51;2.13;;;1.00;;
75542;SDS011;64129;53.508;10.476;2023-04-03T10:18:41;1.33;;;0.75;;
75542;SDS011;64129;53.508;10.476;2023-04-03T10:21:10;1.13;;;0.70;;
75542;SDS011;64129;53.508;10.476;2023-04-03T10:24:30;2.72;;;1.17;;
75542;SDS011;64129;53.508;10.476;2023-04-03T10:26:47;1.63;;;0.82;;
75542;SDS011;64129;53.508;10.476;2023-04-03T10:29:27;1.48;;;0.75;;
75542;SDS011;64129;53.508;10.476;2023-04-03T10:34:50;2.03;;;0.90;;
75542;SDS011;64129;53.508;10.476;2023-04-03T10:37:30;3.08;;;1.00;;
75542;SDS011;64129;53.508;10.476;2023-04-03T10:40:28;0.63;;;0.55;;
75542;SDS011;64129;53.508;10.476;2023-04-03T10:43:02;1.85;;;0.65;;
75542;SDS011;64129;53.508;10.476;2023-04-03T10:48:22;0.95;;;0.80;;
75542;SDS011;64129;53.508;10.476;2023-04-03T10:51:13;2.17;;;0.80;;
75542;SDS011;64129;53.508;10.476;2023-04-03T10:56:32;1.63;;;0.73;;
75542;SDS011;64129;53.508;10.476;2023-04-03T10:59:13;2.45;;;0.82;;
75542;SDS011;64129;53.508;10.476;2023-04-03T11:01:45;1.58;;;0.55;;
75542;SDS011;64129;53.508;10.476;2023-04-03T11:04:16;2.97;;;0.80;;
75542;SDS011;64129;53.508;10.476;2023-04-03T11:06:47;1.75;;;0.68;;
75542;SDS011;64129;53.508;10.476;2023-04-03T11:09:22;2.45;;;0.70;;
75542;SDS011;64129;53.508;10.476;2023-04-03T11:12:00;0.75;;;0.70;;
75542;SDS011;64129;53.508;10.476;2023-04-03T11:14:31;1.15;;;0.70;;
75542;SDS011;64129;53.508;10.476;2023-04-03T11:17:05;2.22;;;1.20;;
75542;SDS011;64129;53.508;10.476;2023-04-03T11:19:41;1.27;;;0.80;;
75542;SDS011;64129;53.508;10.476;2023-04-03T11:22:27;2.10;;;0.60;;
75542;SDS011;64129;53.508;10.476;2023-04-03T11:27:56;2.22;;;0.82;;
75542;SDS011;64129;53.508;10.476;2023-04-03T11:35:42;1.65;;;0.43;;
75542;SDS011;64129;53.508;10.476;2023-04-03T11:38:17;1.60;;;0.60;;
75542;SDS011;64129;53.508;10.476;2023-04-03T11:40:56;1.63;;;0.63;;
75542;SDS011;64129;53.508;10.476;2023-04-03T11:43:25;0.60;;;0.50;;
75542;SDS011;64129;53.508;10.476;2023-04-03T11:46:03;2.25;;;0.70;;
75542;SDS011;64129;53.508;10.476;2023-04-03T11:53:42;2.33;;;0.80;;
75542;SDS011;64129;53.508;10.476;2023-04-03T12:01:44;1.63;;;0.60;;
75542;SDS011;64129;53.508;10.476;2023-04-03T12:04:17;1.98;;;0.50;;
75542;SDS011;64129;53.508;10.476;2023-04-03T12:09:22;1.35;;;0.60;;
75542;SDS011;64129;53.508;10.476;2023-04-03T12:11:51;2.58;;;1.05;;
75542;SDS011;64129;53.508;10.476;2023-04-03T12:14:18;0.98;;;0.88;;
75542;SDS011;64129;53.508;10.476;2023-04-03T12:16:50;1.23;;;1.13;;
75542;SDS011;64129;53.508;10.476;2023-04-03T12:22:06;1.75;;;0.45;;
75542;SDS011;64129;53.508;10.476;2023-04-03T12:24:42;1.55;;;0.70;;
75542;SDS011;64129;53.508;10.476;2023-04-03T12:35:28;1.90;;;0.50;;
75542;SDS011;64129;53.508;10.476;2023-04-03T12:48:54;1.88;;;0.63;;
75542;SDS011;64129;53.508;10.476;2023-04-03T12:51:27;1.27;;;0.55;;
75542;SDS011;64129;53.508;10.476;2023-04-03T12:54:02;1.95;;;0.70;;
75542;SDS011;64129;53.508;10.476;2023-04-03T12:56:39;1.58;;;0.90;;
75542;SDS011;64129;53.508;10.476;2023-04-03T12:59:25;2.28;;;0.80;;
75542;SDS011;64129;53.508;10.476;2023-04-03T13:01:53;4.32;;;0.90;;
75542;SDS011;64129;53.508;10.476;2023-04-03T13:04:21;5.63;;;1.00;;
75542;SDS011;64129;53.508;10.476;2023-04-03T13:06:49;1.08;;;0.98;;
75542;SDS011;64129;53.508;10.476;2023-04-03T13:09:26;1.90;;;0.80;;
75542;SDS011;64129;53.508;10.476;2023-04-03T13:11:56;0.77;;;0.50;;
75542;SDS011;64129;53.508;10.476;2023-04-03T13:14:26;1.10;;;0.45;;
75542;SDS011;64129;53.508;10.476;2023-04-03T13:16:59;1.88;;;0.60;;
75542;SDS011;64129;53.508;10.476;2023-04-03T13:19:31;1.83;;;0.77;;
75542;SDS011;64129;53.508;10.476;2023-04-03T13:22:02;1.95;;;0.70;;
75542;SDS011;64129;53.508;10.476;2023-04-03T13:24:33;3.63;;;0.70;;
75542;SDS011;64129;53.508;10.476;2023-04-03T13:27:03;2.95;;;0.70;;
75542;SDS011;64129;53.508;10.476;2023-04-03T13:29:34;1.08;;;0.68;;
75542;SDS011;64129;53.508;10.476;2023-04-03T13:32:03;1.38;;;0.75;;
75542;SDS011;64129;53.508;10.476;2023-04-03T13:34:41;1.70;;;0.90;;
75542;SDS011;64129;53.508;10.476;2023-04-03T13:40:20;3.47;;;1.00;;
75542;SDS011;64129;53.508;10.476;2023-04-03T13:42:48;1.25;;;0.50;;
75542;SDS011;64129;53.508;10.476;2023-04-03T13:45:29;3.78;;;1.17;;
75542;SDS011;64129;53.508;10.476;2023-04-03T13:50:55;2.70;;;0.60;;
75542;SDS011;64129;53.508;10.476;2023-04-03T13:53:25;1.42;;;0.40;;
75542;SDS011;64129;53.508;10.476;2023-04-03T13:55:55;2.67;;;0.70;;
75542;SDS011;64129;53.508;10.476;2023-04-03T13:58:25;0.93;;;0.60;;
75542;SDS011;64129;53.508;10.476;2023-04-03T14:04:01;1.50;;;0.80;;
75542;SDS011;64129;53.508;10.476;2023-04-03T14:06:36;0.98;;;0.80;;
75542;SDS011;64129;53.508;10.476;2023-04-03T14:09:03;1.80;;;0.80;;
75542;SDS011;64129;53.508;10.476;2023-04-03T14:11:30;1.52;;;0.65;;
75542;SDS011;64129;53.508;10.476;2023-04-03T14:14:06;1.70;;;0.73;;
75542;SDS011;64129;53.508;10.476;2023-04-03T14:16:40;2.55;;;0.82;;
75542;SDS011;64129;53.508;10.476;2023-04-03T14:19:20;1.35;;;0.80;;
75542;SDS011;64129;53.508;10.476;2023-04-03T14:21:54;1.42;;;0.80;;
75542;SDS011;64129;53.508;10.476;2023-04-03T14:24:22;1.98;;;0.70;;
75542;SDS011;64129;53.508;10.476;2023-04-03T14:26:50;2.90;;;0.80;;
75542;SDS011;64129;53.508;10.476;2023-04-03T14:29:19;1.25;;;0.60;;
75542;SDS011;64129;53.508;10.476;2023-04-03T14:31:47;1.40;;;0.70;;
75542;SDS011;64129;53.508;10.476;2023-04-03T14:34:14;2.15;;;0.60;;
75542;SDS011;64129;53.508;10.476;2023-04-03T14:36:42;1.45;;;0.73;;
75542;SDS011;64129;53.508;10.476;2023-04-03T14:39:11;3.95;;;0.77;;
75542;SDS011;64129;53.508;10.476;2023-04-03T14:41:44;1.58;;;0.70;;
75542;SDS011;64129;53.508;10.476;2023-04-03T14:44:11;1.25;;;0.80;;
75542;SDS011;64129;53.508;10.476;2023-04-03T14:46:39;0.80;;;0.70;;
75542;SDS011;64129;53.508;10.476;2023-04-03T14:49:21;1.35;;;0.60;;
75542;SDS011;64129;53.508;10.476;2023-04-03T14:51:50;1.60;;;0.80;;
75542;SDS011;64129;53.508;10.476;2023-04-03T14:54:19;3.58;;;0.80;;
75542;SDS011;64129;53.508;10.476;2023-04-03T14:56:51;1.92;;;0.70;;
75542;SDS011;64129;53.508;10.476;2023-04-03T14:59:18;3.38;;;1.20;;
75542;SDS011;64129;53.508;10.476;2023-04-03T15:01:46;2.40;;;0.70;;
75542;SDS011;64129;53.508;10.476;2023-04-03T15:04:16;1.95;;;0.80;;
75542;SDS011;64129;53.508;10.476;2023-04-03T15:06:45;1.67;;;0.70;;
75542;SDS011;64129;53.508;10.476;2023-04-03T15:09:23;1.35;;;0.80;;
75542;SDS011;64129;53.508;10.476;2023-04-03T15:11:52;2.13;;;0.90;;
75542;SDS011;64129;53.508;10.476;2023-04-03T15:14:20;1.23;;;0.80;;
75542;SDS011;64129;53.508;10.476;2023-04-03T15:16:49;1.83;;;0.65;;
75542;SDS011;64129;53.508;10.476;2023-04-03T15:19:15;2.42;;;0.82;;
75542;SDS011;64129;53.508;10.476;2023-04-03T15:21:42;1.38;;;0.77;;
75542;SDS011;64129;53.508;10.476;2023-04-03T15:24:09;2.58;;;1.02;;
75542;SDS011;64129;53.508;10.476;2023-04-03T15:26:36;3.08;;;0.93;;
75542;SDS011;64129;53.508;10.476;2023-04-03T15:29:04;1.25;;;0.65;;
75542;SDS011;64129;53.508;10.476;2023-04-03T15:31:31;2.20;;;0.60;;
75542;SDS011;64129;53.508;10.476;2023-04-03T15:33:58;1.48;;;0.70;;
75542;SDS011;64129;53.508;10.476;2023-04-03T15:36:24;1.10;;;1.00;;
75542;SDS011;64129;53.508;10.476;2023-04-03T15:38:58;2.97;;;0.90;;
75542;SDS011;64129;53.508;10.476;2023-04-03T15:41:24;2.05;;;0.80;;
75542;SDS011;64129;53.508;10.476;2023-04-03T15:43:51;1.85;;;1.02;;
75542;SDS011;64129;53.508;10.476;2023-04-03T15:46:17;1.67;;;0.80;;
75542;SDS011;64129;53.508;10.476;2023-04-03T15:48:44;1.38;;;0.90;;
75542;SDS011;64129;53.508;10.476;2023-04-03T15:51:11;1.55;;;0.90;;
75542;SDS011;64129;53.508;10.476;2023-04-03T15:53:37;1.88;;;0.93;;
75542;SDS011;64129;53.508;10.476;2023-04-03T15:56:04;2.38;;;0.90;;
75542;SDS011;64129;53.508;10.476;2023-04-03T15:58:30;1.27;;;0.70;;
75542;SDS011;64129;53.508;10.476;2023-04-03T16:00:57;1.73;;;0.60;;
75542;SDS011;64129;53.508;10.476;2023-04-03T16:03:23;1.48;;;0.90;;
75542;SDS011;64129;53.508;10.476;2023-04-03T16:05:50;1.20;;;0.70;;
75542;SDS011;64129;53.508;10.476;2023-04-03T16:08:17;1.90;;;0.70;;
75542;SDS011;64129;53.508;10.476;2023-04-03T16:10:44;1.38;;;0.85;;
75542;SDS011;64129;53.508;10.476;2023-04-03T16:13:12;1.67;;;0.95;;
75542;SDS011;64129;53.508;10.476;2023-04-03T16:15:40;1.92;;;0.80;;
75542;SDS011;64129;53.508;10.476;2023-04-03T16:18:07;2.67;;;1.00;;